sensor_id;sensor_type;location;lat;lon;timestamp;temperature;humidity
13332;DHT22;6735;51.456;12.626;2023-04-19T00:00:17;9.20;74.20
13332;DHT22;6735;51.456;12.626;2023-04-19T00:02:44;9.20;74.10
13332;DHT22;6735;51.456;12.626;2023-04-19T00:05:09;9.10;74.30
13332;DHT22;6735;51.456;12.626;2023-04-19T00:07:37;9.10;74.60
13332;DHT22;6735;51.456;12.626;2023-04-19T00:10:03;9.10;74.70
13332;DHT22;6735;51.456;12.626;2023-04-19T00:12:28;9.00;74.70
13332;DHT22;6735;51.456;12.626;2023-04-19T00:14:54;9.00;74.80
13332;DHT22;6735;51.456;12.626;2023-04-19T00:17:19;9.00;75.00
13332;DHT22;6735;51.456;12.626;2023-04-19T00:19:45;9.00;74.70
13332;DHT22;6735;51.456;12.626;2023-04-19T00:22:11;8.90;75.00
13332;DHT22;6735;51.456;12.626;2023-04-19T00:24:36;8.80;75.10
13332;DHT22;6735;51.456;12.626;2023-04-19T00:27:02;8.70;75.20
13332;DHT22;6735;51.456;12.626;2023-04-19T00:29:28;8.60;75.60
13332;DHT22;6735;51.456;12.626;2023-04-19T00:31:53;8.50;76.00
13332;DHT22;6735;51.456;12.626;2023-04-19T00:34:19;8.40;76.30
13332;DHT22;6735;51.456;12.626;2023-04-19T00:36:44;8.40;76.40
13332;DHT22;6735;51.456;12.626;2023-04-19T00:39:10;8.40;76.30
13332;DHT22;6735;51.456;12.626;2023-04-19T00:41:35;8.40;76.50
13332;DHT22;6735;51.456;12.626;2023-04-19T00:44:01;8.40;76.50
13332;DHT22;6735;51.456;12.626;2023-04-19T00:46:26;8.40;76.80
13332;DHT22;6735;51.456;12.626;2023-04-19T00:48:52;8.40;76.70
13332;DHT22;6735;51.456;12.626;2023-04-19T00:51:18;8.30;76.90
13332;DHT22;6735;51.456;12.626;2023-04-19T00:53:44;8.20;77.10
13332;DHT22;6735;51.456;12.626;2023-04-19T00:56:10;8.20;77.20
13332;DHT22;6735;51.456;12.626;2023-04-19T00:58:37;8.20;77.20
13332;DHT22;6735;51.456;12.626;2023-04-19T01:01:03;8.20;77.30
13332;DHT22;6735;51.456;12.626;2023-04-19T01:03:29;8.10;77.40
13332;DHT22;6735;51.456;12.626;2023-04-19T01:05:55;8.10;77.50
13332;DHT22;6735;51.456;12.626;2023-04-19T01:08:21;8.10;77.60
13332;DHT22;6735;51.456;12.626;2023-04-19T01:10:47;8.20;77.50
13332;DHT22;6735;51.456;12.626;2023-04-19T01:13:12;8.10;77.70
13332;DHT22;6735;51.456;12.626;2023-04-19T01:15:38;8.10;77.80
13332;DHT22;6735;51.456;12.626;2023-04-19T01:18:03;8.10;78.10
13332;DHT22;6735;51.456;12.626;2023-04-19T01:20:29;8.10;78.00
13332;DHT22;6735;51.456;12.626;2023-04-19T01:22:54;8.00;78.20
13332;DHT22;6735;51.456;12.626;2023-04-19T01:25:20;7.90;78.50
13332;DHT22;6735;51.456;12.626;2023-04-19T01:27:45;7.90;78.40
13332;DHT22;6735;51.456;12.626;2023-04-19T01:30:11;7.90;78.80
13332;DHT22;6735;51.456;12.626;2023-04-19T01:32:36;7.90;78.70
13332;DHT22;6735;51.456;12.626;2023-04-19T01:35:02;7.90;78.80
13332;DHT22;6735;51.456;12.626;2023-04-19T01:37:28;7.90;78.80
13332;DHT22;6735;51.456;12.626;2023-04-19T01:39:53;7.80;78.90
13332;DHT22;6735;51.456;12.626;2023-04-19T01:42:19;7.90;79.20
13332;DHT22;6735;51.456;12.626;2023-04-19T01:44:44;7.80;79.40
13332;DHT22;6735;51.456;12.626;2023-04-19T01:47:10;7.90;79.40
13332;DHT22;6735;51.456;12.626;2023-04-19T01:49:36;7.90;79.20
13332;DHT22;6735;51.456;12.626;2023-04-19T01:52:01;7.80;79.10
13332;DHT22;6735;51.456;12.626;2023-04-19T01:54:27;7.80;79.50
13332;DHT22;6735;51.456;12.626;2023-04-19T01:56:52;7.70;79.70
13332;DHT22;6735;51.456;12.626;2023-04-19T01:59:17;7.70;79.70
13332;DHT22;6735;51.456;12.626;2023-04-19T02:01:43;7.70;80.00
13332;DHT22;6735;51.456;12.626;2023-04-19T02:04:08;7.70;80.00
13332;DHT22;6735;51.456;12.626;2023-04-19T02:06:34;7.70;79.90
13332;DHT22;6735;51.456;12.626;2023-04-19T02:09:00;7.60;80.00
13332;DHT22;6735;51.456;12.626;2023-04-19T02:11:25;7.60;80.10
13332;DHT22;6735;51.456;12.626;2023-04-19T02:13:50;7.60;79.90
13332;DHT22;6735;51.456;12.626;2023-04-19T02:16:16;7.50;80.00
13332;DHT22;6735;51.456;12.626;2023-04-19T02:18:41;7.40;80.10
13332;DHT22;6735;51.456;12.626;2023-04-19T02:21:09;7.40;80.50
13332;DHT22;6735;51.456;12.626;2023-04-19T02:23:34;7.40;80.50
13332;DHT22;6735;51.456;12.626;2023-04-19T02:26:00;7.40;80.40
13332;DHT22;6735;51.456;12.626;2023-04-19T02:28:30;7.40;80.30
13332;DHT22;6735;51.456;12.626;2023-04-19T02:30:56;7.40;79.80
13332;DHT22;6735;51.456;12.626;2023-04-19T02:33:21;7.30;79.90
13332;DHT22;6735;51.456;12.626;2023-04-19T02:35:47;7.30;79.80
13332;DHT22;6735;51.456;12.626;2023-04-19T02:38:13;7.30;79.90
13332;DHT22;6735;51.456;12.626;2023-04-19T02:40:38;7.20;79.70
13332;DHT22;6735;51.456;12.626;2023-04-19T02:43:04;7.10;79.40
13332;DHT22;6735;51.456;12.626;2023-04-19T02:45:29;7.20;79.70
13332;DHT22;6735;51.456;12.626;2023-04-19T02:47:55;7.10;79.50
13332;DHT22;6735;51.456;12.626;2023-04-19T02:50:20;7.10;79.50
13332;DHT22;6735;51.456;12.626;2023-04-19T02:52:46;7.10;79.20
13332;DHT22;6735;51.456;12.626;2023-04-19T02:55:11;7.10;79.00
13332;DHT22;6735;51.456;12.626;2023-04-19T02:57:36;7.10;78.90
13332;DHT22;6735;51.456;12.626;2023-04-19T03:00:02;7.10;78.70
13332;DHT22;6735;51.456;12.626;2023-04-19T03:02:30;7.10;78.40
13332;DHT22;6735;51.456;12.626;2023-04-19T03:04:55;7.00;77.90
13332;DHT22;6735;51.456;12.626;2023-04-19T03:07:22;7.00;78.10
13332;DHT22;6735;51.456;12.626;2023-04-19T03:09:47;7.00;78.00
13332;DHT22;6735;51.456;12.626;2023-04-19T03:12:13;7.00;78.00
13332;DHT22;6735;51.456;12.626;2023-04-19T03:14:38;7.00;77.90
13332;DHT22;6735;51.456;12.626;2023-04-19T03:17:03;7.00;77.10
13332;DHT22;6735;51.456;12.626;2023-04-19T03:19:29;7.00;77.20
13332;DHT22;6735;51.456;12.626;2023-04-19T03:21:54;7.00;77.20
13332;DHT22;6735;51.456;12.626;2023-04-19T03:24:26;7.00;76.80
13332;DHT22;6735;51.456;12.626;2023-04-19T03:26:53;7.00;76.90
13332;DHT22;6735;51.456;12.626;2023-04-19T03:29:19;7.00;76.60
13332;DHT22;6735;51.456;12.626;2023-04-19T03:31:44;7.00;76.10
13332;DHT22;6735;51.456;12.626;2023-04-19T03:34:10;7.00;75.90
13332;DHT22;6735;51.456;12.626;2023-04-19T03:36:37;6.90;75.30
13332;DHT22;6735;51.456;12.626;2023-04-19T03:39:03;6.90;75.60
13332;DHT22;6735;51.456;12.626;2023-04-19T03:41:28;6.90;74.80
13332;DHT22;6735;51.456;12.626;2023-04-19T03:43:54;6.90;75.10
13332;DHT22;6735;51.456;12.626;2023-04-19T03:46:19;6.90;74.70
13332;DHT22;6735;51.456;12.626;2023-04-19T03:48:46;6.90;74.60
13332;DHT22;6735;51.456;12.626;2023-04-19T03:51:11;6.90;74.60
13332;DHT22;6735;51.456;12.626;2023-04-19T03:53:38;6.90;73.60
13332;DHT22;6735;51.456;12.626;2023-04-19T03:56:03;6.90;73.80
13332;DHT22;6735;51.456;12.626;2023-04-19T03:58:29;6.90;74.10
13332;DHT22;6735;51.456;12.626;2023-04-19T04:00:54;6.90;72.80
13332;DHT22;6735;51.456;12.626;2023-04-19T04:03:20;6.90;73.00
13332;DHT22;6735;51.456;12.626;2023-04-19T04:05:45;6.90;73.20
13332;DHT22;6735;51.456;12.626;2023-04-19T04:08:11;6.90;72.80
13332;DHT22;6735;51.456;12.626;2023-04-19T04:10:38;6.90;72.70
13332;DHT22;6735;51.456;12.626;2023-04-19T04:13:03;6.80;72.10
13332;DHT22;6735;51.456;12.626;2023-04-19T04:15:29;6.80;71.00
13332;DHT22;6735;51.456;12.626;2023-04-19T04:17:54;6.80;71.30
13332;DHT22;6735;51.456;12.626;2023-04-19T04:20:20;6.70;70.90
13332;DHT22;6735;51.456;12.626;2023-04-19T04:22:45;6.70;70.90
13332;DHT22;6735;51.456;12.626;2023-04-19T04:25:11;6.60;70.40
13332;DHT22;6735;51.456;12.626;2023-04-19T04:27:37;6.60;69.70
13332;DHT22;6735;51.456;12.626;2023-04-19T04:30:04;6.70;69.70
13332;DHT22;6735;51.456;12.626;2023-04-19T04:32:30;6.70;69.40
13332;DHT22;6735;51.456;12.626;2023-04-19T04:35:01;6.60;69.20
13332;DHT22;6735;51.456;12.626;2023-04-19T04:37:26;6.70;69.10
13332;DHT22;6735;51.456;12.626;2023-04-19T04:39:51;6.70;68.40
13332;DHT22;6735;51.456;12.626;2023-04-19T04:42:17;6.60;68.50
13332;DHT22;6735;51.456;12.626;2023-04-19T04:44:45;6.60;67.50
13332;DHT22;6735;51.456;12.626;2023-04-19T04:47:14;6.60;67.80
13332;DHT22;6735;51.456;12.626;2023-04-19T04:49:40;6.50;67.00
13332;DHT22;6735;51.456;12.626;2023-04-19T04:52:05;6.50;65.60
13332;DHT22;6735;51.456;12.626;2023-04-19T04:54:32;6.50;66.50
13332;DHT22;6735;51.456;12.626;2023-04-19T04:56:58;6.50;66.10
13332;DHT22;6735;51.456;12.626;2023-04-19T04:59:25;6.50;65.30
13332;DHT22;6735;51.456;12.626;2023-04-19T05:01:50;6.50;65.50
13332;DHT22;6735;51.456;12.626;2023-04-19T05:04:16;6.50;66.10
13332;DHT22;6735;51.456;12.626;2023-04-19T05:06:42;6.50;65.70
13332;DHT22;6735;51.456;12.626;2023-04-19T05:09:09;6.50;65.40
13332;DHT22;6735;51.456;12.626;2023-04-19T05:11:34;6.50;64.90
13332;DHT22;6735;51.456;12.626;2023-04-19T05:14:00;6.60;64.40
13332;DHT22;6735;51.456;12.626;2023-04-19T05:16:26;6.60;63.90
13332;DHT22;6735;51.456;12.626;2023-04-19T05:18:51;6.60;63.60
13332;DHT22;6735;51.456;12.626;2023-04-19T05:21:17;6.60;63.90
13332;DHT22;6735;51.456;12.626;2023-04-19T05:23:42;6.50;62.80
13332;DHT22;6735;51.456;12.626;2023-04-19T05:26:08;6.50;63.90
13332;DHT22;6735;51.456;12.626;2023-04-19T05:28:37;6.50;62.60
13332;DHT22;6735;51.456;12.626;2023-04-19T05:31:03;6.40;63.50
13332;DHT22;6735;51.456;12.626;2023-04-19T05:33:28;6.50;63.30
13332;DHT22;6735;51.456;12.626;2023-04-19T05:35:54;6.50;64.00
13332;DHT22;6735;51.456;12.626;2023-04-19T05:38:19;6.40;63.90
13332;DHT22;6735;51.456;12.626;2023-04-19T05:40:45;6.40;63.60
13332;DHT22;6735;51.456;12.626;2023-04-19T05:43:10;6.50;64.10
13332;DHT22;6735;51.456;12.626;2023-04-19T05:45:36;6.60;63.80
13332;DHT22;6735;51.456;12.626;2023-04-19T05:48:01;6.70;64.00
13332;DHT22;6735;51.456;12.626;2023-04-19T05:50:27;6.70;63.60
13332;DHT22;6735;51.456;12.626;2023-04-19T05:52:52;6.80;63.50
13332;DHT22;6735;51.456;12.626;2023-04-19T05:55:18;6.80;63.80
13332;DHT22;6735;51.456;12.626;2023-04-19T05:57:43;6.80;63.80
13332;DHT22;6735;51.456;12.626;2023-04-19T06:00:09;6.90;64.00
13332;DHT22;6735;51.456;12.626;2023-04-19T06:02:35;7.10;63.60
13332;DHT22;6735;51.456;12.626;2023-04-19T06:05:01;7.90;61.60
13332;DHT22;6735;51.456;12.626;2023-04-19T06:07:29;9.50;57.60
13332;DHT22;6735;51.456;12.626;2023-04-19T06:09:55;10.80;55.20
13332;DHT22;6735;51.456;12.626;2023-04-19T06:12:20;11.60;50.80
13332;DHT22;6735;51.456;12.626;2023-04-19T06:14:46;12.20;50.60
13332;DHT22;6735;51.456;12.626;2023-04-19T06:17:11;12.40;51.30
13332;DHT22;6735;51.456;12.626;2023-04-19T06:19:39;11.80;50.50
13332;DHT22;6735;51.456;12.626;2023-04-19T06:22:05;11.70;51.80
13332;DHT22;6735;51.456;12.626;2023-04-19T06:24:31;12.20;50.90
13332;DHT22;6735;51.456;12.626;2023-04-19T06:26:56;12.50;49.50
13332;DHT22;6735;51.456;12.626;2023-04-19T06:29:22;12.90;49.80
13332;DHT22;6735;51.456;12.626;2023-04-19T06:31:48;13.20;49.00
13332;DHT22;6735;51.456;12.626;2023-04-19T06:34:14;13.80;46.50
13332;DHT22;6735;51.456;12.626;2023-04-19T06:36:40;14.10;46.90
13332;DHT22;6735;51.456;12.626;2023-04-19T06:39:06;13.90;47.20
13332;DHT22;6735;51.456;12.626;2023-04-19T06:41:31;14.00;46.70
13332;DHT22;6735;51.456;12.626;2023-04-19T06:43:57;14.40;47.70
13332;DHT22;6735;51.456;12.626;2023-04-19T06:46:22;14.50;46.30
13332;DHT22;6735;51.456;12.626;2023-04-19T06:48:48;14.40;44.80
13332;DHT22;6735;51.456;12.626;2023-04-19T06:51:13;14.30;46.00
13332;DHT22;6735;51.456;12.626;2023-04-19T06:53:39;14.20;44.70
13332;DHT22;6735;51.456;12.626;2023-04-19T06:56:04;14.40;43.50
13332;DHT22;6735;51.456;12.626;2023-04-19T06:58:30;14.20;44.80
13332;DHT22;6735;51.456;12.626;2023-04-19T07:00:56;14.20;44.00
13332;DHT22;6735;51.456;12.626;2023-04-19T07:03:22;14.20;44.40
13332;DHT22;6735;51.456;12.626;2023-04-19T07:05:48;14.10;42.20
13332;DHT22;6735;51.456;12.626;2023-04-19T07:08:13;14.30;44.20
13332;DHT22;6735;51.456;12.626;2023-04-19T07:10:39;14.50;43.10
13332;DHT22;6735;51.456;12.626;2023-04-19T07:13:04;14.60;43.90
13332;DHT22;6735;51.456;12.626;2023-04-19T07:15:30;14.10;43.20
13332;DHT22;6735;51.456;12.626;2023-04-19T07:17:55;14.60;43.50
13332;DHT22;6735;51.456;12.626;2023-04-19T07:20:21;14.00;43.70
13332;DHT22;6735;51.456;12.626;2023-04-19T07:22:46;14.10;43.90
13332;DHT22;6735;51.456;12.626;2023-04-19T07:25:13;14.20;41.90
13332;DHT22;6735;51.456;12.626;2023-04-19T07:27:38;13.90;43.50
13332;DHT22;6735;51.456;12.626;2023-04-19T07:30:05;14.10;43.50
13332;DHT22;6735;51.456;12.626;2023-04-19T07:32:31;14.50;42.90
13332;DHT22;6735;51.456;12.626;2023-04-19T07:34:56;14.30;43.10
13332;DHT22;6735;51.456;12.626;2023-04-19T07:37:22;13.90;44.00
13332;DHT22;6735;51.456;12.626;2023-04-19T07:39:47;13.70;43.70
13332;DHT22;6735;51.456;12.626;2023-04-19T07:42:13;13.60;44.00
13332;DHT22;6735;51.456;12.626;2023-04-19T07:44:38;13.60;43.20
13332;DHT22;6735;51.456;12.626;2023-04-19T07:47:04;13.30;44.50
13332;DHT22;6735;51.456;12.626;2023-04-19T07:49:32;13.60;43.90
13332;DHT22;6735;51.456;12.626;2023-04-19T07:51:59;13.20;44.50
13332;DHT22;6735;51.456;12.626;2023-04-19T07:54:26;13.60;44.20
13332;DHT22;6735;51.456;12.626;2023-04-19T07:56:51;13.50;43.40
13332;DHT22;6735;51.456;12.626;2023-04-19T07:59:17;13.30;43.60
13332;DHT22;6735;51.456;12.626;2023-04-19T08:01:42;13.50;43.20
13332;DHT22;6735;51.456;12.626;2023-04-19T08:04:08;13.20;43.40
13332;DHT22;6735;51.456;12.626;2023-04-19T08:06:34;13.10;43.20
13332;DHT22;6735;51.456;12.626;2023-04-19T08:09:02;13.00;44.00
13332;DHT22;6735;51.456;12.626;2023-04-19T08:11:27;12.90;43.20
13332;DHT22;6735;51.456;12.626;2023-04-19T08:13:53;12.90;43.70
13332;DHT22;6735;51.456;12.626;2023-04-19T08:16:19;12.80;44.20
13332;DHT22;6735;51.456;12.626;2023-04-19T08:18:44;12.90;44.50
13332;DHT22;6735;51.456;12.626;2023-04-19T08:21:10;12.90;44.40
13332;DHT22;6735;51.456;12.626;2023-04-19T08:23:36;12.90;45.00
13332;DHT22;6735;51.456;12.626;2023-04-19T08:26:02;13.20;44.30
13332;DHT22;6735;51.456;12.626;2023-04-19T08:28:28;13.40;44.40
13332;DHT22;6735;51.456;12.626;2023-04-19T08:30:53;13.50;43.40
13332;DHT22;6735;51.456;12.626;2023-04-19T08:33:19;13.60;43.50
13332;DHT22;6735;51.456;12.626;2023-04-19T08:35:44;13.60;43.20
13332;DHT22;6735;51.456;12.626;2023-04-19T08:38:10;13.40;42.70
13332;DHT22;6735;51.456;12.626;2023-04-19T08:40:40;13.40;43.40
13332;DHT22;6735;51.456;12.626;2023-04-19T08:43:06;13.70;42.50
13332;DHT22;6735;51.456;12.626;2023-04-19T08:45:32;13.60;42.80
13332;DHT22;6735;51.456;12.626;2023-04-19T08:48:00;13.70;42.50
13332;DHT22;6735;51.456;12.626;2023-04-19T08:50:26;13.60;42.50
13332;DHT22;6735;51.456;12.626;2023-04-19T08:52:52;13.70;42.70
13332;DHT22;6735;51.456;12.626;2023-04-19T08:55:17;13.50;42.20
13332;DHT22;6735;51.456;12.626;2023-04-19T08:57:43;13.10;42.80
13332;DHT22;6735;51.456;12.626;2023-04-19T09:00:09;13.30;43.10
13332;DHT22;6735;51.456;12.626;2023-04-19T09:02:51;13.30;42.50
13332;DHT22;6735;51.456;12.626;2023-04-19T09:05:18;13.40;42.50
13332;DHT22;6735;51.456;12.626;2023-04-19T09:07:45;13.20;42.40
13332;DHT22;6735;51.456;12.626;2023-04-19T09:10:15;13.10;43.10
13332;DHT22;6735;51.456;12.626;2023-04-19T09:12:41;13.30;42.80
13332;DHT22;6735;51.456;12.626;2023-04-19T09:15:08;13.30;42.10
13332;DHT22;6735;51.456;12.626;2023-04-19T09:17:35;13.20;41.90
13332;DHT22;6735;51.456;12.626;2023-04-19T09:20:01;13.70;42.20
13332;DHT22;6735;51.456;12.626;2023-04-19T09:22:26;13.70;42.20
13332;DHT22;6735;51.456;12.626;2023-04-19T09:24:52;14.10;41.50
13332;DHT22;6735;51.456;12.626;2023-04-19T09:27:32;14.10;41.40
13332;DHT22;6735;51.456;12.626;2023-04-19T09:29:59;13.90;41.40
13332;DHT22;6735;51.456;12.626;2023-04-19T09:32:25;14.20;41.50
13332;DHT22;6735;51.456;12.626;2023-04-19T09:34:53;14.40;40.60
13332;DHT22;6735;51.456;12.626;2023-04-19T09:37:19;14.20;40.90
13332;DHT22;6735;51.456;12.626;2023-04-19T09:39:45;13.90;40.50
13332;DHT22;6735;51.456;12.626;2023-04-19T09:42:10;13.50;41.70
13332;DHT22;6735;51.456;12.626;2023-04-19T09:44:36;13.60;41.00
13332;DHT22;6735;51.456;12.626;2023-04-19T09:47:01;13.60;40.70
13332;DHT22;6735;51.456;12.626;2023-04-19T09:49:27;13.60;41.20
13332;DHT22;6735;51.456;12.626;2023-04-19T09:51:54;13.80;40.80
13332;DHT22;6735;51.456;12.626;2023-04-19T09:54:22;13.90;40.90
13332;DHT22;6735;51.456;12.626;2023-04-19T09:56:48;13.80;40.90
13332;DHT22;6735;51.456;12.626;2023-04-19T09:59:14;13.70;41.40
13332;DHT22;6735;51.456;12.626;2023-04-19T10:01:47;13.70;41.40
13332;DHT22;6735;51.456;12.626;2023-04-19T10:04:14;13.80;40.60
13332;DHT22;6735;51.456;12.626;2023-04-19T10:06:50;14.10;40.20
13332;DHT22;6735;51.456;12.626;2023-04-19T10:09:17;14.10;40.80
13332;DHT22;6735;51.456;12.626;2023-04-19T10:11:47;14.50;40.90
13332;DHT22;6735;51.456;12.626;2023-04-19T10:14:14;14.40;40.50
13332;DHT22;6735;51.456;12.626;2023-04-19T10:16:40;14.20;40.70
13332;DHT22;6735;51.456;12.626;2023-04-19T10:19:14;14.20;40.50
13332;DHT22;6735;51.456;12.626;2023-04-19T10:21:41;14.10;40.10
13332;DHT22;6735;51.456;12.626;2023-04-19T10:24:08;14.10;40.10
13332;DHT22;6735;51.456;12.626;2023-04-19T10:29:57;14.00;41.30
13332;DHT22;6735;51.456;12.626;2023-04-19T10:32:27;14.00;40.90
13332;DHT22;6735;51.456;12.626;2023-04-19T10:34:53;14.00;41.10
13332;DHT22;6735;51.456;12.626;2023-04-19T10:37:25;14.00;41.50
13332;DHT22;6735;51.456;12.626;2023-04-19T10:39:50;14.10;41.00
13332;DHT22;6735;51.456;12.626;2023-04-19T10:42:16;13.90;40.90
13332;DHT22;6735;51.456;12.626;2023-04-19T10:45:30;13.70;41.00
13332;DHT22;6735;51.456;12.626;2023-04-19T10:47:56;14.00;40.90
13332;DHT22;6735;51.456;12.626;2023-04-19T10:50:22;14.20;40.60
13332;DHT22;6735;51.456;12.626;2023-04-19T10:52:48;14.40;39.80
13332;DHT22;6735;51.456;12.626;2023-04-19T10:55:20;14.30;39.80
13332;DHT22;6735;51.456;12.626;2023-04-19T10:58:05;14.70;39.70
13332;DHT22;6735;51.456;12.626;2023-04-19T11:00:31;14.70;39.80
13332;DHT22;6735;51.456;12.626;2023-04-19T11:06:14;13.80;41.00
13332;DHT22;6735;51.456;12.626;2023-04-19T11:08:43;13.60;41.20
13332;DHT22;6735;51.456;12.626;2023-04-19T11:11:09;13.60;41.40
13332;DHT22;6735;51.456;12.626;2023-04-19T11:13:35;13.90;41.80
13332;DHT22;6735;51.456;12.626;2023-04-19T11:16:07;13.90;41.10
13332;DHT22;6735;51.456;12.626;2023-04-19T11:18:32;14.30;40.30
13332;DHT22;6735;51.456;12.626;2023-04-19T11:20:58;14.30;40.70
13332;DHT22;6735;51.456;12.626;2023-04-19T11:23:25;14.10;40.00
13332;DHT22;6735;51.456;12.626;2023-04-19T11:25:51;14.10;40.00
13332;DHT22;6735;51.456;12.626;2023-04-19T11:28:17;13.70;40.70
13332;DHT22;6735;51.456;12.626;2023-04-19T11:30:43;13.80;40.90
13332;DHT22;6735;51.456;12.626;2023-04-19T11:33:11;14.20;40.20
13332;DHT22;6735;51.456;12.626;2023-04-19T11:35:37;13.70;40.00
13332;DHT22;6735;51.456;12.626;2023-04-19T11:38:02;13.50;41.00
13332;DHT22;6735;51.456;12.626;2023-04-19T11:40:29;13.40;41.00
13332;DHT22;6735;51.456;12.626;2023-04-19T11:43:00;13.20;41.60
13332;DHT22;6735;51.456;12.626;2023-04-19T11:45:34;13.30;41.50
13332;DHT22;6735;51.456;12.626;2023-04-19T11:48:01;13.70;41.60
13332;DHT22;6735;51.456;12.626;2023-04-19T11:50:34;13.70;41.60
13332;DHT22;6735;51.456;12.626;2023-04-19T11:53:18;13.60;41.90
13332;DHT22;6735;51.456;12.626;2023-04-19T11:55:49;13.50;41.80
13332;DHT22;6735;51.456;12.626;2023-04-19T11:58:32;13.20;42.00
13332;DHT22;6735;51.456;12.626;2023-04-19T12:01:04;13.20;42.40
13332;DHT22;6735;51.456;12.626;2023-04-19T12:03:34;13.20;43.00
13332;DHT22;6735;51.456;12.626;2023-04-19T12:06:01;13.60;42.70
13332;DHT22;6735;51.456;12.626;2023-04-19T12:08:41;14.10;42.20
13332;DHT22;6735;51.456;12.626;2023-04-19T12:11:07;13.90;42.00
13332;DHT22;6735;51.456;12.626;2023-04-19T12:13:33;13.90;42.10
13332;DHT22;6735;51.456;12.626;2023-04-19T12:15:59;13.80;42.50
13332;DHT22;6735;51.456;12.626;2023-04-19T12:18:25;13.50;42.70
13332;DHT22;6735;51.456;12.626;2023-04-19T12:20:51;13.30;42.60
13332;DHT22;6735;51.456;12.626;2023-04-19T12:23:18;13.20;43.00
13332;DHT22;6735;51.456;12.626;2023-04-19T12:25:46;13.10;42.90
13332;DHT22;6735;51.456;12.626;2023-04-19T12:28:13;13.00;43.00
13332;DHT22;6735;51.456;12.626;2023-04-19T12:30:39;13.10;43.40
13332;DHT22;6735;51.456;12.626;2023-04-19T12:33:08;13.10;42.60
13332;DHT22;6735;51.456;12.626;2023-04-19T12:35:34;13.10;43.20
13332;DHT22;6735;51.456;12.626;2023-04-19T12:37:59;13.20;43.20
13332;DHT22;6735;51.456;12.626;2023-04-19T12:40:26;13.10;42.70
13332;DHT22;6735;51.456;12.626;2023-04-19T12:42:52;13.30;42.20
13332;DHT22;6735;51.456;12.626;2023-04-19T12:45:18;13.50;41.70
13332;DHT22;6735;51.456;12.626;2023-04-19T12:47:45;13.80;41.60
13332;DHT22;6735;51.456;12.626;2023-04-19T12:50:13;13.80;42.30
13332;DHT22;6735;51.456;12.626;2023-04-19T12:52:39;13.80;42.40
13332;DHT22;6735;51.456;12.626;2023-04-19T12:55:05;13.90;43.10
13332;DHT22;6735;51.456;12.626;2023-04-19T12:57:31;14.10;42.50
13332;DHT22;6735;51.456;12.626;2023-04-19T12:59:56;14.10;42.00
13332;DHT22;6735;51.456;12.626;2023-04-19T13:02:22;14.20;40.80
13332;DHT22;6735;51.456;12.626;2023-04-19T13:04:47;14.30;40.30
13332;DHT22;6735;51.456;12.626;2023-04-19T13:07:13;14.50;39.60
13332;DHT22;6735;51.456;12.626;2023-04-19T13:09:38;14.50;38.40
13332;DHT22;6735;51.456;12.626;2023-04-19T13:12:04;14.40;39.60
13332;DHT22;6735;51.456;12.626;2023-04-19T13:14:30;14.20;39.30
13332;DHT22;6735;51.456;12.626;2023-04-19T13:16:55;13.90;39.50
13332;DHT22;6735;51.456;12.626;2023-04-19T13:19:21;13.60;40.30
13332;DHT22;6735;51.456;12.626;2023-04-19T13:21:46;12.90;45.00
13332;DHT22;6735;51.456;12.626;2023-04-19T13:24:12;12.30;49.50
13332;DHT22;6735;51.456;12.626;2023-04-19T13:26:37;12.30;48.50
13332;DHT22;6735;51.456;12.626;2023-04-19T13:29:03;12.50;48.30
13332;DHT22;6735;51.456;12.626;2023-04-19T13:31:29;12.50;47.40
13332;DHT22;6735;51.456;12.626;2023-04-19T13:33:55;12.60;47.70
13332;DHT22;6735;51.456;12.626;2023-04-19T13:36:21;12.70;47.60
13332;DHT22;6735;51.456;12.626;2023-04-19T13:38:47;12.70;47.00
13332;DHT22;6735;51.456;12.626;2023-04-19T13:41:13;12.80;46.40
13332;DHT22;6735;51.456;12.626;2023-04-19T13:43:39;12.90;45.90
13332;DHT22;6735;51.456;12.626;2023-04-19T13:46:04;12.80;44.50
13332;DHT22;6735;51.456;12.626;2023-04-19T13:48:30;12.80;45.20
13332;DHT22;6735;51.456;12.626;2023-04-19T13:50:56;12.80;43.80
13332;DHT22;6735;51.456;12.626;2023-04-19T13:53:23;12.80;44.00
13332;DHT22;6735;51.456;12.626;2023-04-19T13:55:49;12.70;44.60
13332;DHT22;6735;51.456;12.626;2023-04-19T13:58:15;12.70;44.10
13332;DHT22;6735;51.456;12.626;2023-04-19T14:00:41;13.00;43.60
13332;DHT22;6735;51.456;12.626;2023-04-19T14:03:06;13.30;43.20
13332;DHT22;6735;51.456;12.626;2023-04-19T14:05:32;13.50;42.70
13332;DHT22;6735;51.456;12.626;2023-04-19T14:07:58;13.50;42.80
13332;DHT22;6735;51.456;12.626;2023-04-19T14:10:23;13.40;43.10
13332;DHT22;6735;51.456;12.626;2023-04-19T14:12:50;13.20;43.80
13332;DHT22;6735;51.456;12.626;2023-04-19T14:15:19;13.20;44.50
13332;DHT22;6735;51.456;12.626;2023-04-19T14:17:45;13.20;44.70
13332;DHT22;6735;51.456;12.626;2023-04-19T14:20:11;13.10;44.50
13332;DHT22;6735;51.456;12.626;2023-04-19T14:22:37;12.80;44.60
13332;DHT22;6735;51.456;12.626;2023-04-19T14:25:03;12.70;45.40
13332;DHT22;6735;51.456;12.626;2023-04-19T14:27:29;12.50;48.70
13332;DHT22;6735;51.456;12.626;2023-04-19T14:29:55;11.80;52.70
13332;DHT22;6735;51.456;12.626;2023-04-19T14:32:23;11.30;54.30
13332;DHT22;6735;51.456;12.626;2023-04-19T14:34:53;11.00;55.50
13332;DHT22;6735;51.456;12.626;2023-04-19T14:37:20;10.90;56.60
13332;DHT22;6735;51.456;12.626;2023-04-19T14:39:46;10.80;56.70
13332;DHT22;6735;51.456;12.626;2023-04-19T14:42:12;10.80;56.80
13332;DHT22;6735;51.456;12.626;2023-04-19T14:44:37;10.60;57.20
13332;DHT22;6735;51.456;12.626;2023-04-19T14:47:03;10.60;58.20
13332;DHT22;6735;51.456;12.626;2023-04-19T14:49:28;10.50;58.10
13332;DHT22;6735;51.456;12.626;2023-04-19T14:51:54;10.30;58.30
13332;DHT22;6735;51.456;12.626;2023-04-19T14:54:19;10.20;58.30
13332;DHT22;6735;51.456;12.626;2023-04-19T14:56:45;10.10;58.80
13332;DHT22;6735;51.456;12.626;2023-04-19T14:59:11;10.20;58.70
13332;DHT22;6735;51.456;12.626;2023-04-19T15:01:36;10.30;59.60
13332;DHT22;6735;51.456;12.626;2023-04-19T15:04:02;10.40;60.00
13332;DHT22;6735;51.456;12.626;2023-04-19T15:06:27;10.50;60.30
13332;DHT22;6735;51.456;12.626;2023-04-19T15:08:53;10.40;59.50
13332;DHT22;6735;51.456;12.626;2023-04-19T15:11:19;10.60;59.10
13332;DHT22;6735;51.456;12.626;2023-04-19T15:13:44;10.60;59.00
13332;DHT22;6735;51.456;12.626;2023-04-19T15:16:10;10.50;58.90
13332;DHT22;6735;51.456;12.626;2023-04-19T15:18:35;10.50;58.70
13332;DHT22;6735;51.456;12.626;2023-04-19T15:21:04;10.70;59.00
13332;DHT22;6735;51.456;12.626;2023-04-19T15:23:30;10.90;58.80
13332;DHT22;6735;51.456;12.626;2023-04-19T15:25:55;10.90;57.40
13332;DHT22;6735;51.456;12.626;2023-04-19T15:28:22;11.10;58.00
13332;DHT22;6735;51.456;12.626;2023-04-19T15:31:09;11.30;57.50
13332;DHT22;6735;51.456;12.626;2023-04-19T15:33:35;11.20;56.00
13332;DHT22;6735;51.456;12.626;2023-04-19T15:36:01;11.10;55.60
13332;DHT22;6735;51.456;12.626;2023-04-19T15:38:28;11.30;55.40